sensor_id;sensor_type;location;lat;lon;timestamp;pressure;altitude;pressure_sealevel;temperature;humidity
30935;BME280;51033;42.648;23.292;2024-01-30T00:01:04;95726.44;;;0.36;45.98
30935;BME280;51033;42.648;23.292;2024-01-30T00:03:30;95737.22;;;0.86;46.09
30935;BME280;51033;42.648;23.292;2024-01-30T00:05:55;95705.56;;;0.94;45.78
30935;BME280;51033;42.648;23.292;2024-01-30T00:08:21;95736.75;;;1.15;45.50
30935;BME280;51033;42.648;23.292;2024-01-30T00:10:46;95739.97;;;1.17;45.08
30935;BME280;51033;42.648;23.292;2024-01-30T00:13:12;95735.72;;;1.16;45.16
30935;BME280;51033;42.648;23.292;2024-01-30T00:15:39;95746.81;;;1.18;45.27
30935;BME280;51033;42.648;23.292;2024-01-30T00:18:04;95748.00;;;1.22;45.24
30935;BME280;51033;42.648;23.292;2024-01-30T00:20:30;95714.22;;;1.01;45.08
30935;BME280;51033;42.648;23.292;2024-01-30T00:22:55;95746.41;;;1.21;44.92
30935;BME280;51033;42.648;23.292;2024-01-30T00:25:21;95747.03;;;1.16;45.11
30935;BME280;51033;42.648;23.292;2024-01-30T00:27:46;95746.84;;;1.05;45.05
30935;BME280;51033;42.648;23.292;2024-01-30T00:30:12;95714.34;;;0.35;45.22
30935;BME280;51033;42.648;23.292;2024-01-30T00:32:37;95743.72;;;0.50;45.91
30935;BME280;51033;42.648;23.292;2024-01-30T00:35:03;95741.91;;;0.77;45.77
30935;BME280;51033;42.648;23.292;2024-01-30T00:37:28;95742.44;;;0.99;45.42
30935;BME280;51033;42.648;23.292;2024-01-30T00:39:54;95730.75;;;0.95;45.38
30935;BME280;51033;42.648;23.292;2024-01-30T00:42:19;95742.41;;;1.05;45.07
30935;BME280;51033;42.648;23.292;2024-01-30T00:44:45;95750.47;;;1.10;44.96
30935;BME280;51033;42.648;23.292;2024-01-30T00:47:10;95741.16;;;1.14;45.33
30935;BME280;51033;42.648;23.292;2024-01-30T00:49:36;95737.16;;;1.05;45.46
30935;BME280;51033;42.648;23.292;2024-01-30T00:52:02;95743.59;;;1.09;45.65
30935;BME280;51033;42.648;23.292;2024-01-30T00:54:27;95744.03;;;1.00;45.68
30935;BME280;51033;42.648;23.292;2024-01-30T00:56:53;95740.84;;;0.98;45.90
30935;BME280;51033;42.648;23.292;2024-01-30T00:59:18;95744.44;;;1.03;46.07
30935;BME280;51033;42.648;23.292;2024-01-30T01:01:44;95734.75;;;1.04;46.22
30935;BME280;51033;42.648;23.292;2024-01-30T01:04:09;95731.72;;;1.07;46.21
30935;BME280;51033;42.648;23.292;2024-01-30T01:06:34;95733.75;;;1.05;46.29
30935;BME280;51033;42.648;23.292;2024-01-30T01:09:00;95733.56;;;1.00;46.44
30935;BME280;51033;42.648;23.292;2024-01-30T01:11:25;95730.34;;;0.98;46.32
30935;BME280;51033;42.648;23.292;2024-01-30T01:13:51;95722.69;;;0.90;46.04
30935;BME280;51033;42.648;23.292;2024-01-30T01:16:16;95736.41;;;0.92;46.22
30935;BME280;51033;42.648;23.292;2024-01-30T01:18:42;95718.28;;;0.90;46.22
30935;BME280;51033;42.648;23.292;2024-01-30T01:21:07;95730.34;;;0.98;45.99
30935;BME280;51033;42.648;23.292;2024-01-30T01:23:32;95736.41;;;0.98;45.93
30935;BME280;51033;42.648;23.292;2024-01-30T01:25:58;95732.56;;;1.01;45.97
30935;BME280;51033;42.648;23.292;2024-01-30T01:28:25;95733.78;;;0.98;45.96
30935;BME280;51033;42.648;23.292;2024-01-30T01:30:50;95730.38;;;0.85;46.15
30935;BME280;51033;42.648;23.292;2024-01-30T01:33:16;95735.63;;;0.85;46.25
30935;BME280;51033;42.648;23.292;2024-01-30T01:35:42;95730.19;;;0.79;46.40
30935;BME280;51033;42.648;23.292;2024-01-30T01:38:08;95736.28;;;0.67;46.49
30935;BME280;51033;42.648;23.292;2024-01-30T01:40:33;95741.69;;;0.65;46.78
30935;BME280;51033;42.648;23.292;2024-01-30T01:43:03;95719.78;;;0.53;46.79
30935;BME280;51033;42.648;23.292;2024-01-30T01:45:28;95743.31;;;0.66;46.56
30935;BME280;51033;42.648;23.292;2024-01-30T01:47:54;95736.69;;;0.64;46.71
30935;BME280;51033;42.648;23.292;2024-01-30T01:50:21;95719.97;;;0.45;46.82
30935;BME280;51033;42.648;23.292;2024-01-30T01:52:47;95740.50;;;0.61;46.58
30935;BME280;51033;42.648;23.292;2024-01-30T01:55:15;95730.22;;;0.66;46.51
30935;BME280;51033;42.648;23.292;2024-01-30T01:57:41;95737.66;;;0.69;46.50
30935;BME280;51033;42.648;23.292;2024-01-30T02:00:08;95747.56;;;0.67;46.28
30935;BME280;51033;42.648;23.292;2024-01-30T02:02:36;95738.31;;;0.32;46.30
30935;BME280;51033;42.648;23.292;2024-01-30T02:05:01;95735.72;;;0.19;46.35
30935;BME280;51033;42.648;23.292;2024-01-30T02:07:30;95745.38;;;-0.01;46.88
30935;BME280;51033;42.648;23.292;2024-01-30T02:09:56;95749.19;;;0.03;47.20
30935;BME280;51033;42.648;23.292;2024-01-30T02:12:21;95723.22;;;0.21;46.69
30935;BME280;51033;42.648;23.292;2024-01-30T02:14:48;95752.63;;;0.29;46.67
30935;BME280;51033;42.648;23.292;2024-01-30T02:17:15;95744.94;;;-0.25;47.37
30935;BME280;51033;42.648;23.292;2024-01-30T02:19:41;95757.31;;;-0.60;48.00
30935;BME280;51033;42.648;23.292;2024-01-30T02:22:07;95753.13;;;-0.41;48.38
30935;BME280;51033;42.648;23.292;2024-01-30T02:24:33;95752.19;;;-0.14;47.85
30935;BME280;51033;42.648;23.292;2024-01-30T02:26:58;95739.53;;;0.03;47.47
30935;BME280;51033;42.648;23.292;2024-01-30T02:29:24;95723.84;;;0.10;47.40
30935;BME280;51033;42.648;23.292;2024-01-30T02:31:49;95732.06;;;0.26;46.81
30935;BME280;51033;42.648;23.292;2024-01-30T02:34:15;95739.72;;;0.41;46.60
30935;BME280;51033;42.648;23.292;2024-01-30T02:36:44;95735.69;;;0.06;46.68
30935;BME280;51033;42.648;23.292;2024-01-30T02:39:09;95744.75;;;-0.10;46.97
30935;BME280;51033;42.648;23.292;2024-01-30T02:41:35;95744.47;;;-0.48;47.77
30935;BME280;51033;42.648;23.292;2024-01-30T02:44:01;95738.84;;;-0.45;48.20
30935;BME280;51033;42.648;23.292;2024-01-30T02:46:27;95739.31;;;-0.15;47.83
30935;BME280;51033;42.648;23.292;2024-01-30T02:48:52;95737.28;;;-0.26;47.40
30935;BME280;51033;42.648;23.292;2024-01-30T02:51:18;95739.28;;;-0.35;47.92
30935;BME280;51033;42.648;23.292;2024-01-30T02:53:43;95745.81;;;-0.65;48.35
30935;BME280;51033;42.648;23.292;2024-01-30T02:56:09;95744.66;;;-1.04;49.06
30935;BME280;51033;42.648;23.292;2024-01-30T02:58:39;95749.09;;;-1.04;49.47
30935;BME280;51033;42.648;23.292;2024-01-30T03:01:04;95750.31;;;-1.41;50.17
30935;BME280;51033;42.648;23.292;2024-01-30T03:06:14;95753.22;;;-1.23;49.78
30935;BME280;51033;42.648;23.292;2024-01-30T03:08:42;95744.75;;;-0.84;49.37
30935;BME280;51033;42.648;23.292;2024-01-30T03:11:08;95728.00;;;-0.42;48.36
30935;BME280;51033;42.648;23.292;2024-01-30T03:13:33;95714.88;;;-1.16;49.06
30935;BME280;51033;42.648;23.292;2024-01-30T03:15:59;95738.34;;;-0.75;48.92
30935;BME280;51033;42.648;23.292;2024-01-30T03:18:24;95733.59;;;-0.52;48.26
30935;BME280;51033;42.648;23.292;2024-01-30T03:20:50;95738.03;;;-0.45;47.94
30935;BME280;51033;42.648;23.292;2024-01-30T03:23:15;95731.19;;;-0.53;47.94
30935;BME280;51033;42.648;23.292;2024-01-30T03:25:41;95738.31;;;-0.81;48.50
30935;BME280;51033;42.648;23.292;2024-01-30T03:28:06;95726.78;;;-0.46;48.00
30935;BME280;51033;42.648;23.292;2024-01-30T03:30:31;95739.16;;;-0.68;48.13
30935;BME280;51033;42.648;23.292;2024-01-30T03:32:57;95728.97;;;-0.56;48.66
30935;BME280;51033;42.648;23.292;2024-01-30T03:35:22;95711.09;;;-0.46;47.71
30935;BME280;51033;42.648;23.292;2024-01-30T03:37:48;95729.66;;;-0.15;47.40
30935;BME280;51033;42.648;23.292;2024-01-30T03:40:13;95723.94;;;-0.51;48.13
30935;BME280;51033;42.648;23.292;2024-01-30T03:42:39;95731.84;;;-0.92;48.42
30935;BME280;51033;42.648;23.292;2024-01-30T03:45:05;95728.69;;;-0.81;48.79
30935;BME280;51033;42.648;23.292;2024-01-30T03:47:30;95724.81;;;-0.91;48.65
30935;BME280;51033;42.648;23.292;2024-01-30T03:49:56;95726.06;;;-0.87;48.63
30935;BME280;51033;42.648;23.292;2024-01-30T03:52:21;95715.09;;;-0.63;47.96
30935;BME280;51033;42.648;23.292;2024-01-30T03:54:46;95715.88;;;-0.63;47.97
30935;BME280;51033;42.648;23.292;2024-01-30T03:57:12;95717.53;;;-0.48;47.45
30935;BME280;51033;42.648;23.292;2024-01-30T03:59:37;95702.19;;;-0.71;47.59
30935;BME280;51033;42.648;23.292;2024-01-30T04:02:03;95722.28;;;-0.78;47.77
30935;BME280;51033;42.648;23.292;2024-01-30T04:04:28;95724.66;;;-0.83;48.03
30935;BME280;51033;42.648;23.292;2024-01-30T04:06:54;95732.72;;;-0.78;48.22
30935;BME280;51033;42.648;23.292;2024-01-30T04:09:19;95717.28;;;-0.60;48.03
30935;BME280;51033;42.648;23.292;2024-01-30T04:11:45;95646.72;;;-0.67;47.16
30935;BME280;51033;42.648;23.292;2024-01-30T04:14:10;95654.81;;;-0.35;46.55
30935;BME280;51033;42.648;23.292;2024-01-30T04:16:36;95716.16;;;-0.18;46.67
30935;BME280;51033;42.648;23.292;2024-01-30T04:19:01;95712.72;;;-0.32;46.59
30935;BME280;51033;42.648;23.292;2024-01-30T04:21:27;95710.47;;;-0.48;46.80
30935;BME280;51033;42.648;23.292;2024-01-30T04:23:53;95716.31;;;-0.59;47.14
30935;BME280;51033;42.648;23.292;2024-01-30T04:26:18;95709.47;;;-0.60;46.97
30935;BME280;51033;42.648;23.292;2024-01-30T04:28:44;95714.13;;;-0.36;47.05
30935;BME280;51033;42.648;23.292;2024-01-30T04:31:10;95692.19;;;-0.41;47.01
30935;BME280;51033;42.648;23.292;2024-01-30T04:33:36;95718.78;;;-0.25;46.95
30935;BME280;51033;42.648;23.292;2024-01-30T04:36:02;95719.78;;;-0.39;47.43
30935;BME280;51033;42.648;23.292;2024-01-30T04:38:29;95703.22;;;-0.66;47.59
30935;BME280;51033;42.648;23.292;2024-01-30T04:40:54;95708.84;;;-0.62;47.83
30935;BME280;51033;42.648;23.292;2024-01-30T04:43:20;95725.69;;;-0.71;47.84
30935;BME280;51033;42.648;23.292;2024-01-30T04:45:45;95729.31;;;-0.79;48.13
30935;BME280;51033;42.648;23.292;2024-01-30T04:48:11;95731.56;;;-0.69;47.81
30935;BME280;51033;42.648;23.292;2024-01-30T04:50:36;95729.59;;;-0.41;47.85
30935;BME280;51033;42.648;23.292;2024-01-30T04:53:02;95735.06;;;-0.23;47.41
30935;BME280;51033;42.648;23.292;2024-01-30T04:55:27;95734.28;;;-0.03;46.67
30935;BME280;51033;42.648;23.292;2024-01-30T04:57:53;95729.03;;;-0.30;46.70
30935;BME280;51033;42.648;23.292;2024-01-30T05:00:18;95735.66;;;-0.34;47.49
30935;BME280;51033;42.648;23.292;2024-01-30T05:02:44;95744.34;;;-0.87;47.88
30935;BME280;51033;42.648;23.292;2024-01-30T05:05:09;95743.81;;;-1.17;48.36
30935;BME280;51033;42.648;23.292;2024-01-30T05:07:36;95748.72;;;-0.95;48.20
30935;BME280;51033;42.648;23.292;2024-01-30T05:10:02;95727.34;;;-1.11;48.24
30935;BME280;51033;42.648;23.292;2024-01-30T05:12:28;95747.53;;;-0.92;48.56
30935;BME280;51033;42.648;23.292;2024-01-30T05:14:53;95750.69;;;-1.03;48.83
30935;BME280;51033;42.648;23.292;2024-01-30T05:17:19;95751.19;;;-1.27;48.81
30935;BME280;51033;42.648;23.292;2024-01-30T05:19:44;95761.28;;;-1.46;48.82
30935;BME280;51033;42.648;23.292;2024-01-30T05:22:09;95733.94;;;-2.48;50.15
30935;BME280;51033;42.648;23.292;2024-01-30T05:24:36;95758.94;;;-2.53;50.41
30935;BME280;51033;42.648;23.292;2024-01-30T05:27:01;95760.63;;;-1.82;49.47
30935;BME280;51033;42.648;23.292;2024-01-30T05:29:30;95766.41;;;-2.08;49.10
30935;BME280;51033;42.648;23.292;2024-01-30T05:31:55;95764.41;;;-1.85;49.05
30935;BME280;51033;42.648;23.292;2024-01-30T05:34:20;95763.75;;;-1.38;48.17
30935;BME280;51033;42.648;23.292;2024-01-30T05:36:46;95762.44;;;-1.27;47.62
30935;BME280;51033;42.648;23.292;2024-01-30T05:39:11;95759.44;;;-0.83;46.93
30935;BME280;51033;42.648;23.292;2024-01-30T05:41:37;95761.31;;;-0.57;46.60
30935;BME280;51033;42.648;23.292;2024-01-30T05:44:02;95758.16;;;-0.46;46.55
30935;BME280;51033;42.648;23.292;2024-01-30T05:46:28;95753.78;;;-0.26;46.11
30935;BME280;51033;42.648;23.292;2024-01-30T05:48:53;95732.44;;;-0.36;45.84
30935;BME280;51033;42.648;23.292;2024-01-30T05:51:19;95738.28;;;-0.34;45.72
30935;BME280;51033;42.648;23.292;2024-01-30T05:53:44;95743.75;;;-0.16;45.56
30935;BME280;51033;42.648;23.292;2024-01-30T05:56:10;95752.22;;;-0.00;45.34
30935;BME280;51033;42.648;23.292;2024-01-30T05:58:35;95746.56;;;0.03;45.60
30935;BME280;51033;42.648;23.292;2024-01-30T06:01:03;95751.81;;;0.16;45.29
30935;BME280;51033;42.648;23.292;2024-01-30T06:03:28;95746.19;;;0.19;45.22
30935;BME280;51033;42.648;23.292;2024-01-30T06:05:54;95743.56;;;0.19;45.15
30935;BME280;51033;42.648;23.292;2024-01-30T06:08:19;95744.78;;;0.23;45.14
30935;BME280;51033;42.648;23.292;2024-01-30T06:10:44;95745.38;;;0.25;44.95
30935;BME280;51033;42.648;23.292;2024-01-30T06:13:10;95723.03;;;0.09;45.00
30935;BME280;51033;42.648;23.292;2024-01-30T06:15:35;95744.56;;;0.24;45.12
30935;BME280;51033;42.648;23.292;2024-01-30T06:18:01;95753.44;;;0.23;45.27
30935;BME280;51033;42.648;23.292;2024-01-30T06:20:26;95748.56;;;0.20;45.07
30935;BME280;51033;42.648;23.292;2024-01-30T06:22:52;95751.38;;;-0.08;44.98
30935;BME280;51033;42.648;23.292;2024-01-30T06:25:17;95761.19;;;-0.36;45.68
30935;BME280;51033;42.648;23.292;2024-01-30T06:27:43;95763.50;;;-0.74;46.29
30935;BME280;51033;42.648;23.292;2024-01-30T06:30:09;95764.75;;;-1.04;47.45
30935;BME280;51033;42.648;23.292;2024-01-30T06:32:37;95763.19;;;-0.92;47.11
30935;BME280;51033;42.648;23.292;2024-01-30T06:35:04;95765.78;;;-0.99;47.18
30935;BME280;51033;42.648;23.292;2024-01-30T06:37:31;95764.56;;;-1.03;47.44
30935;BME280;51033;42.648;23.292;2024-01-30T06:39:56;95760.47;;;-0.71;47.24
30935;BME280;51033;42.648;23.292;2024-01-30T06:42:22;95758.41;;;-0.34;46.60
30935;BME280;51033;42.648;23.292;2024-01-30T06:44:47;95760.13;;;-0.48;46.76
30935;BME280;51033;42.648;23.292;2024-01-30T06:47:12;95772.66;;;-0.43;46.52
30935;BME280;51033;42.648;23.292;2024-01-30T06:49:38;95762.19;;;-0.37;46.34
30935;BME280;51033;42.648;23.292;2024-01-30T06:52:06;95769.53;;;-0.73;47.15
30935;BME280;51033;42.648;23.292;2024-01-30T06:54:32;95765.28;;;-1.22;48.07
30935;BME280;51033;42.648;23.292;2024-01-30T06:56:58;95764.44;;;-0.81;47.43
30935;BME280;51033;42.648;23.292;2024-01-30T06:59:24;95776.78;;;-1.10;47.76
30935;BME280;51033;42.648;23.292;2024-01-30T07:01:49;95775.41;;;-1.89;47.19
30935;BME280;51033;42.648;23.292;2024-01-30T07:04:14;95776.78;;;-2.72;48.21
30935;BME280;51033;42.648;23.292;2024-01-30T07:06:41;95778.72;;;-3.09;49.41
30935;BME280;51033;42.648;23.292;2024-01-30T07:09:06;95781.03;;;-3.44;50.11
30935;BME280;51033;42.648;23.292;2024-01-30T07:11:32;95788.59;;;-3.34;50.59
30935;BME280;51033;42.648;23.292;2024-01-30T07:13:57;95778.34;;;-3.50;50.30
30935;BME280;51033;42.648;23.292;2024-01-30T07:16:22;95770.28;;;-3.26;50.38
30935;BME280;51033;42.648;23.292;2024-01-30T07:18:48;95762.28;;;-3.39;50.58
30935;BME280;51033;42.648;23.292;2024-01-30T07:21:14;95786.13;;;-3.50;50.83
30935;BME280;51033;42.648;23.292;2024-01-30T07:23:40;95754.66;;;-3.26;50.43
30935;BME280;51033;42.648;23.292;2024-01-30T07:26:07;95784.84;;;-3.17;50.04
30935;BME280;51033;42.648;23.292;2024-01-30T07:28:33;95781.97;;;-3.22;50.08
30935;BME280;51033;42.648;23.292;2024-01-30T07:31:00;95778.56;;;-3.37;50.17
30935;BME280;51033;42.648;23.292;2024-01-30T07:33:25;95767.94;;;-3.50;50.56
30935;BME280;51033;42.648;23.292;2024-01-30T07:35:52;95776.47;;;-3.57;50.62
30935;BME280;51033;42.648;23.292;2024-01-30T07:38:18;95786.88;;;-3.57;50.59
30935;BME280;51033;42.648;23.292;2024-01-30T07:40:43;95784.00;;;-3.47;50.65
30935;BME280;51033;42.648;23.292;2024-01-30T07:43:09;95761.91;;;-3.66;50.63
30935;BME280;51033;42.648;23.292;2024-01-30T07:45:35;95785.16;;;-3.49;50.34
30935;BME280;51033;42.648;23.292;2024-01-30T07:48:00;95774.44;;;-3.32;49.90
30935;BME280;51033;42.648;23.292;2024-01-30T07:50:27;95778.44;;;-3.00;49.13
30935;BME280;51033;42.648;23.292;2024-01-30T07:52:52;95774.31;;;-3.38;49.63
30935;BME280;51033;42.648;23.292;2024-01-30T07:55:23;95774.22;;;-3.30;49.77
30935;BME280;51033;42.648;23.292;2024-01-30T07:57:56;95771.00;;;-3.32;49.61
30935;BME280;51033;42.648;23.292;2024-01-30T08:00:22;95756.28;;;-3.25;49.45
30935;BME280;51033;42.648;23.292;2024-01-30T08:02:48;95764.09;;;-3.25;49.29
30935;BME280;51033;42.648;23.292;2024-01-30T08:05:14;95762.66;;;-3.28;49.86
30935;BME280;51033;42.648;23.292;2024-01-30T08:07:43;95766.34;;;-3.22;49.90
30935;BME280;51033;42.648;23.292;2024-01-30T08:10:10;95768.84;;;-3.29;49.86
30935;BME280;51033;42.648;23.292;2024-01-30T08:12:36;95771.72;;;-3.38;50.17
30935;BME280;51033;42.648;23.292;2024-01-30T08:15:01;95762.75;;;-3.36;49.86
30935;BME280;51033;42.648;23.292;2024-01-30T08:17:28;95757.81;;;-3.45;50.15
30935;BME280;51033;42.648;23.292;2024-01-30T08:19:53;95770.47;;;-3.28;50.31
30935;BME280;51033;42.648;23.292;2024-01-30T08:22:19;95746.03;;;-3.41;50.10
30935;BME280;51033;42.648;23.292;2024-01-30T08:24:44;95745.16;;;-3.19;49.65
30935;BME280;51033;42.648;23.292;2024-01-30T08:27:10;95760.66;;;-2.96;49.94
30935;BME280;51033;42.648;23.292;2024-01-30T08:29:35;95750.19;;;-3.03;49.56
30935;BME280;51033;42.648;23.292;2024-01-30T08:32:01;95734.81;;;-2.98;49.75
30935;BME280;51033;42.648;23.292;2024-01-30T08:34:27;95771.44;;;-2.85;49.36
30935;BME280;51033;42.648;23.292;2024-01-30T08:36:53;95766.00;;;-2.68;49.05
30935;BME280;51033;42.648;23.292;2024-01-30T08:39:20;95764.41;;;-2.70;48.36
30935;BME280;51033;42.648;23.292;2024-01-30T08:41:45;95774.56;;;-2.53;48.25
30935;BME280;51033;42.648;23.292;2024-01-30T08:44:11;95770.94;;;-2.38;48.13
30935;BME280;51033;42.648;23.292;2024-01-30T08:46:36;95778.44;;;-2.49;47.79
30935;BME280;51033;42.648;23.292;2024-01-30T08:49:02;95786.44;;;-2.51;48.13
30935;BME280;51033;42.648;23.292;2024-01-30T08:51:29;95781.97;;;-2.57;48.11
30935;BME280;51033;42.648;23.292;2024-01-30T08:53:55;95787.25;;;-2.50;48.22
30935;BME280;51033;42.648;23.292;2024-01-30T08:56:20;95778.75;;;-2.38;47.92
30935;BME280;51033;42.648;23.292;2024-01-30T08:58:46;95783.75;;;-2.21;47.47
30935;BME280;51033;42.648;23.292;2024-01-30T09:01:11;95790.03;;;-2.52;48.10
30935;BME280;51033;42.648;23.292;2024-01-30T09:03:37;95791.75;;;-2.44;47.63
30935;BME280;51033;42.648;23.292;2024-01-30T09:06:10;95782.91;;;-2.43;47.94
30935;BME280;51033;42.648;23.292;2024-01-30T09:08:37;95793.09;;;-2.27;48.11
30935;BME280;51033;42.648;23.292;2024-01-30T09:11:11;95790.03;;;-2.52;47.87
30935;BME280;51033;42.648;23.292;2024-01-30T09:13:37;95774.78;;;-2.55;47.79
30935;BME280;51033;42.648;23.292;2024-01-30T09:16:03;95783.41;;;-2.33;47.52
30935;BME280;51033;42.648;23.292;2024-01-30T09:18:29;95784.84;;;-2.09;47.21
30935;BME280;51033;42.648;23.292;2024-01-30T09:20:54;95767.78;;;-2.33;47.24
30935;BME280;51033;42.648;23.292;2024-01-30T09:23:20;95776.00;;;-2.15;47.25
30935;BME280;51033;42.648;23.292;2024-01-30T09:25:45;95777.41;;;-1.91;47.02
30935;BME280;51033;42.648;23.292;2024-01-30T09:28:11;95768.91;;;-2.00;47.12
30935;BME280;51033;42.648;23.292;2024-01-30T09:30:36;95765.91;;;-1.48;46.26
30935;BME280;51033;42.648;23.292;2024-01-30T09:33:02;95767.66;;;-1.27;45.55
30935;BME280;51033;42.648;23.292;2024-01-30T09:35:27;95763.66;;;-1.51;45.93
30935;BME280;51033;42.648;23.292;2024-01-30T09:37:53;95765.63;;;-1.59;46.57
30935;BME280;51033;42.648;23.292;2024-01-30T09:40:18;95761.50;;;-1.47;46.33
30935;BME280;51033;42.648;23.292;2024-01-30T09:42:47;95763.81;;;-1.59;46.21
30935;BME280;51033;42.648;23.292;2024-01-30T09:45:14;95759.25;;;-1.50;46.53
30935;BME280;51033;42.648;23.292;2024-01-30T09:47:43;95755.66;;;-1.49;46.41
30935;BME280;51033;42.648;23.292;2024-01-30T09:50:10;95742.09;;;-1.66;47.45
30935;BME280;51033;42.648;23.292;2024-01-30T09:52:36;95759.00;;;-1.83;47.04
30935;BME280;51033;42.648;23.292;2024-01-30T09:55:03;95756.66;;;-1.78;47.50
30935;BME280;51033;42.648;23.292;2024-01-30T09:57:29;95757.63;;;-1.79;48.39
30935;BME280;51033;42.648;23.292;2024-01-30T09:59:54;95691.19;;;-2.32;48.97
30935;BME280;51033;42.648;23.292;2024-01-30T10:02:21;95756.16;;;-1.60;49.07
30935;BME280;51033;42.648;23.292;2024-01-30T10:04:50;95736.00;;;-1.45;48.60
30935;BME280;51033;42.648;23.292;2024-01-30T10:07:19;95751.69;;;-1.39;48.66
30935;BME280;51033;42.648;23.292;2024-01-30T10:09:46;95750.38;;;-1.28;48.49
30935;BME280;51033;42.648;23.292;2024-01-30T10:12:12;95744.44;;;-1.43;49.14
30935;BME280;51033;42.648;23.292;2024-01-30T10:14:42;95738.06;;;-1.34;48.07
30935;BME280;51033;42.648;23.292;2024-01-30T10:17:08;95737.38;;;-1.15;48.00
30935;BME280;51033;42.648;23.292;2024-01-30T10:19:35;95735.66;;;-0.95;47.72
30935;BME280;51033;42.648;23.292;2024-01-30T10:22:01;95739.94;;;-0.80;47.46
30935;BME280;51033;42.648;23.292;2024-01-30T10:24:27;95736.66;;;-0.96;47.16
30935;BME280;51033;42.648;23.292;2024-01-30T10:26:54;95730.25;;;-0.86;46.65
30935;BME280;51033;42.648;23.292;2024-01-30T10:29:20;95739.50;;;-0.90;46.71
30935;BME280;51033;42.648;23.292;2024-01-30T10:31:45;95739.00;;;-1.14;46.47
30935;BME280;51033;42.648;23.292;2024-01-30T10:34:10;95735.63;;;-1.42;47.17
30935;BME280;51033;42.648;23.292;2024-01-30T10:36:40;95743.50;;;-1.63;47.68
30935;BME280;51033;42.648;23.292;2024-01-30T10:39:08;95746.09;;;-1.35;47.69
30935;BME280;51033;42.648;23.292;2024-01-30T10:41:42;95739.66;;;-0.99;47.58
30935;BME280;51033;42.648;23.292;2024-01-30T10:44:10;95739.63;;;-1.05;47.01
30935;BME280;51033;42.648;23.292;2024-01-30T10:46:38;95741.41;;;-1.12;47.58
30935;BME280;51033;42.648;23.292;2024-01-30T10:49:04;95739.69;;;-0.92;47.78
30935;BME280;51033;42.648;23.292;2024-01-30T10:51:31;95731.88;;;-0.85;46.93
30935;BME280;51033;42.648;23.292;2024-01-30T10:53:57;95731.09;;;-0.79;47.19
30935;BME280;51033;42.648;23.292;2024-01-30T10:56:24;95732.09;;;-1.28;47.26
30935;BME280;51033;42.648;23.292;2024-01-30T10:58:53;95718.28;;;-1.50;47.04
30935;BME280;51033;42.648;23.292;2024-01-30T11:01:22;95716.31;;;-1.48;47.56
30935;BME280;51033;42.648;23.292;2024-01-30T11:03:50;95725.66;;;-1.25;46.84
30935;BME280;51033;42.648;23.292;2024-01-30T11:06:16;95711.50;;;-1.44;47.62
30935;BME280;51033;42.648;23.292;2024-01-30T11:08:44;95695.78;;;-1.57;48.23
30935;BME280;51033;42.648;23.292;2024-01-30T11:11:10;95691.84;;;-1.74;48.04
30935;BME280;51033;42.648;23.292;2024-01-30T11:13:36;95703.97;;;-1.26;48.01
30935;BME280;51033;42.648;23.292;2024-01-30T11:16:02;95700.69;;;-1.41;48.01
30935;BME280;51033;42.648;23.292;2024-01-30T11:18:32;95712.38;;;-1.37;47.90
30935;BME280;51033;42.648;23.292;2024-01-30T11:21:00;95711.44;;;-1.23;47.82
30935;BME280;51033;42.648;23.292;2024-01-30T11:23:30;95697.97;;;-1.20;47.56
30935;BME280;51033;42.648;23.292;2024-01-30T11:25:56;95710.47;;;-1.50;48.03
30935;BME280;51033;42.648;23.292;2024-01-30T11:28:23;95684.81;;;-1.80;48.41
30935;BME280;51033;42.648;23.292;2024-01-30T11:30:48;95708.31;;;-1.46;48.17
30935;BME280;51033;42.648;23.292;2024-01-30T11:33:27;95701.69;;;-1.42;48.11
30935;BME280;51033;42.648;23.292;2024-01-30T11:35:57;95705.25;;;-1.50;47.84
30935;BME280;51033;42.648;23.292;2024-01-30T11:38:24;95708.31;;;-1.46;48.65
30935;BME280;51033;42.648;23.292;2024-01-30T11:40:51;95704.38;;;-1.29;48.23
30935;BME280;51033;42.648;23.292;2024-01-30T11:43:18;95705.13;;;-1.35;48.51
30935;BME280;51033;42.648;23.292;2024-01-30T11:45:44;95702.72;;;-1.36;48.55
30935;BME280;51033;42.648;23.292;2024-01-30T11:48:12;95684.94;;;-1.54;48.38
30935;BME280;51033;42.648;23.292;2024-01-30T11:50:38;95706.22;;;-1.57;48.86
30935;BME280;51033;42.648;23.292;2024-01-30T11:53:05;95703.22;;;-1.54;49.08
30935;BME280;51033;42.648;23.292;2024-01-30T11:55:31;95705.06;;;-1.48;49.01
30935;BME280;51033;42.648;23.292;2024-01-30T11:57:57;95696.00;;;-1.52;48.83
30935;BME280;51033;42.648;23.292;2024-01-30T12:00:23;95691.75;;;-1.60;49.04
30935;BME280;51033;42.648;23.292;2024-01-30T12:02:54;95667.31;;;-1.52;48.84
30935;BME280;51033;42.648;23.292;2024-01-30T12:05:24;95673.47;;;-1.60;48.85
30935;BME280;51033;42.648;23.292;2024-01-30T12:07:50;95652.75;;;-1.68;48.73
30935;BME280;51033;42.648;23.292;2024-01-30T12:10:16;95677.63;;;-1.72;48.99
30935;BME280;51033;42.648;23.292;2024-01-30T12:12:46;95641.81;;;-1.85;48.74
30935;BME280;51033;42.648;23.292;2024-01-30T12:15:12;95664.47;;;-1.57;48.42
30935;BME280;51033;42.648;23.292;2024-01-30T12:17:38;95661.41;;;-1.67;48.70
30935;BME280;51033;42.648;23.292;2024-01-30T12:20:13;95653.31;;;-1.38;48.55
30935;BME280;51033;42.648;23.292;2024-01-30T12:22:48;95660.41;;;-1.60;48.90
30935;BME280;51033;42.648;23.292;2024-01-30T12:25:15;95658.41;;;-1.64;48.77
30935;BME280;51033;42.648;23.292;2024-01-30T12:27:46;95652.69;;;-1.81;48.83
30935;BME280;51033;42.648;23.292;2024-01-30T12:30:15;95646.72;;;-1.68;48.91
30935;BME280;51033;42.648;23.292;2024-01-30T12:32:42;95648.06;;;-1.51;53.03
30935;BME280;51033;42.648;23.292;2024-01-30T12:35:19;95651.69;;;-1.39;49.07
30935;BME280;51033;42.648;23.292;2024-01-30T12:37:46;95647.88;;;-1.43;48.60
30935;BME280;51033;42.648;23.292;2024-01-30T12:40:14;95639.88;;;-1.35;48.48
30935;BME280;51033;42.648;23.292;2024-01-30T12:42:40;95643.28;;;-1.41;48.09
30935;BME280;51033;42.648;23.292;2024-01-30T12:45:07;95632.13;;;-1.22;48.43
30935;BME280;51033;42.648;23.292;2024-01-30T12:47:33;95632.13;;;-1.15;48.15
30935;BME280;51033;42.648;23.292;2024-01-30T12:49:58;95640.22;;;-0.90;47.44